Date,TemperatureHighF,TemperatureAvgF,TemperatureLowF,DewpointHighF,DewpointAvgF,DewpointLowF,HumidityHigh,HumidityAvg,HumidityLow,PressureMaxIn,PressureMinIn,WindSpeedMaxMPH,WindSpeedAvgMPH,GustSpeedMaxMPH,PrecipitationSumIn
2013-3-1,42.1,38.1,35.9,33.6,31.6,28.9,87,78,67,29.63,29.49,9,0,9,0.00
2013-3-2,44.6,37.8,33.1,31.1,28.5,26.7,78,69,56,29.62,29.56,11,1,11,0.00
2013-3-3,40.6,34.9,31.0,34.1,29.4,25.6,90,80,67,29.59,29.50,13,2,13,0.00
2013-3-4,37.5,32.6,30.5,27.8,25.1,22.8,84,74,58,29.65,29.52,18,4,19,0.00
2013-3-6,37.3,34.9,32.6,34.9,32.1,30.0,95,90,76,30.10,30.05,14,1,14,0.00
2013-3-7,35.1,32.4,31.0,32.2,29.9,27.7,95,90,84,30.08,29.97,10,1,10,0.00
2013-3-8,41.0,33.5,29.8,33.7,29.0,23.6,95,85,55,30.12,29.91,15,1,15,0.00
2013-3-9,44.7,35.6,30.7,26.5,22.8,20.8,69,60,46,30.20,30.11,8,1,9,0.00
2013-3-10,42.2,35.0,23.5,33.2,30.3,19.9,89,83,66,30.37,30.26,3,0,7,0.00
2013-3-11,52.9,41.8,32.4,39.9,34.1,29.5,92,76,47,30.28,30.09,9,0,9,0.00
2013-3-12,52.4,47.4,41.3,50.8,45.0,38.3,98,91,86,30.11,29.67,12,1,12,0.00
2013-3-13,52.2,44.3,32.3,50.9,34.1,24.9,96,70,41,29.73,29.64,14,2,14,0.00
2013-3-14,37.5,30.8,21.6,26.3,18.5,6.0,85,61,45,29.77,29.63,21,3,21,0.00
2013-3-15,40.1,22.4,18.4,30.1,7.6,4.3,79,53,30,29.80,29.57,18,4,21,0.00
2013-3-16,38.6,33.5,27.0,27.5,16.1,10.2,78,49,34,29.85,29.61,11,2,18,0.00
2013-3-17,34.7,27.8,21.6,19.0,11.9,1.8,81,54,29,30.28,29.84,19,2,19,0.00
2013-3-18,32.9,25.8,17.9,23.8,11.5,0.9,69,55,38,30.35,30.21,10,1,11,0.00
2013-3-19,32.7,30.3,29.1,28.5,25.9,21.8,92,84,64,30.21,30.07,5,0,5,0.00
2013-3-21,41.7,35.3,30.1,27.9,23.8,16.8,87,65,40,29.70,29.55,6,0,6,0.00
2013-3-22,30.2,29.4,27.2,26.6,21.8,19.0,88,73,64,29.57,29.55,9,1,9,0.00
2013-3-23,42.7,36.7,29.2,23.8,21.8,18.9,74,55,40,29.67,29.57,27,4,27,0.00
2013-3-24,47.2,40.0,32.8,29.4,26.6,22.7,79,60,40,29.75,29.67,10,1,21,0.00
2013-3-25,43.4,36.2,28.0,33.9,29.8,24.9,89,77,67,29.73,29.51,10,0,10,0.00
2013-3-26,50.7,39.8,33.5,29.6,25.6,18.6,77,59,31,29.62,29.51,11,2,13,0.00
2013-3-28,47.9,43.1,36.4,34.0,32.5,30.8,87,66,52,29.95,29.88,3,0,9,0.00
2013-3-29,41.9,39.3,36.0,33.0,31.6,30.1,79,74,68,29.99,29.95,2,0,2,0.00
2013-3-30,45.2,40.0,36.0,33.3,31.6,29.9,79,72,57,30.01,29.98,9,1,9,0.00